createdAt,value
2022-07-29T00:00:09.970Z,101500.56
2022-07-29T00:02:55.205Z,101489.38
2022-07-29T00:05:42.661Z,101502.00
2022-07-29T00:08:27.840Z,101502.47
2022-07-29T00:11:13.152Z,101497.75
2022-07-29T00:13:58.396Z,101498.72
2022-07-29T00:16:43.821Z,101496.56
2022-07-29T00:19:29.080Z,101498.78
2022-07-29T00:22:14.350Z,101482.75
2022-07-29T00:24:59.838Z,101498.66
2022-07-29T00:27:46.742Z,101493.81
2022-07-29T00:30:31.967Z,101494.38
2022-07-29T00:33:17.164Z,101493.47
2022-07-29T00:36:02.116Z,101497.06
2022-07-29T00:38:51.911Z,101501.84
2022-07-29T00:41:36.833Z,101494.56
2022-07-29T00:44:22.216Z,101491.34
2022-07-29T00:47:08.360Z,101481.47
2022-07-29T00:49:53.612Z,101491.44
2022-07-29T00:52:42.177Z,101496.94
2022-07-29T00:55:27.786Z,101490.94
2022-07-29T00:58:14.857Z,101486.38
2022-07-29T01:01:01.348Z,101472.31
2022-07-29T01:03:46.497Z,101486.00
2022-07-29T01:06:31.496Z,101483.47
2022-07-29T01:09:18.552Z,101478.50
2022-07-29T01:12:25.290Z,101480.94
2022-07-29T01:15:10.874Z,101484.13
2022-07-29T01:18:08.116Z,101474.25
2022-07-29T01:21:14.650Z,101477.75
2022-07-29T01:24:28.540Z,101469.31
2022-07-29T01:27:34.331Z,101477.53
2022-07-29T01:30:19.835Z,101474.63
2022-07-29T01:33:32.423Z,101469.66
2022-07-29T01:36:24.892Z,101476.00
2022-07-29T01:39:17.982Z,101471.91
2022-07-29T01:42:08.831Z,101476.66
2022-07-29T01:45:17.827Z,101477.78
2022-07-29T01:48:22.832Z,101474.25
2022-07-29T01:51:07.654Z,101461.28
2022-07-29T01:54:15.412Z,101480.47
2022-07-29T01:57:02.584Z,101438.75
2022-07-29T01:59:49.541Z,101455.91
2022-07-29T02:02:37.042Z,101473.69
2022-07-29T02:05:25.085Z,101473.50
2022-07-29T02:08:12.315Z,101470.75
2022-07-29T02:11:00.495Z,101472.00
2022-07-29T02:13:46.457Z,101472.22
2022-07-29T02:16:34.564Z,101470.72
2022-07-29T02:19:24.336Z,101470.94
2022-07-29T02:22:12.043Z,101445.88
2022-07-29T02:24:59.294Z,101465.88
2022-07-29T02:27:48.235Z,101481.66
2022-07-29T02:30:36.572Z,101470.50
2022-07-29T02:33:24.209Z,101467.88
2022-07-29T02:36:10.193Z,101464.50
2022-07-29T02:38:58.684Z,101451.94
2022-07-29T02:41:51.098Z,101473.22
2022-07-29T02:44:36.938Z,101474.28
2022-07-29T02:47:24.986Z,101458.38
2022-07-29T02:50:33.601Z,101464.47
2022-07-29T02:53:27.554Z,101472.81
2022-07-29T02:56:17.429Z,101473.13
2022-07-29T02:59:04.286Z,101474.47
2022-07-29T03:01:50.693Z,101464.97
2022-07-29T03:04:38.255Z,101473.84
2022-07-29T03:07:24.335Z,101475.91
2022-07-29T03:10:13.746Z,101468.97
2022-07-29T03:13:00.182Z,101468.63
2022-07-29T03:15:46.300Z,101476.34
2022-07-29T03:18:32.638Z,101473.72
2022-07-29T03:21:18.067Z,101480.63
2022-07-29T03:24:06.868Z,101480.00
2022-07-29T03:26:57.163Z,101475.03
2022-07-29T03:29:43.720Z,101470.91
2022-07-29T03:32:36.306Z,101478.59
2022-07-29T03:35:21.446Z,101475.44
2022-07-29T03:38:06.611Z,101483.00
2022-07-29T03:41:01.683Z,101481.69
2022-07-29T03:43:49.107Z,101456.94
2022-07-29T03:46:36.515Z,101475.78
2022-07-29T03:49:24.205Z,101484.97
2022-07-29T03:52:09.913Z,101471.69
2022-07-29T03:54:55.130Z,101483.97
2022-07-29T03:57:41.404Z,101491.88
2022-07-29T04:00:27.852Z,101477.34
2022-07-29T04:03:14.131Z,101487.53
2022-07-29T04:06:07.677Z,101483.97
2022-07-29T04:08:52.687Z,101463.94
2022-07-29T04:12:01.877Z,101483.50
2022-07-29T04:14:45.962Z,101481.19
2022-07-29T04:17:31.381Z,101482.25
2022-07-29T04:20:16.680Z,101470.06
2022-07-29T04:23:02.167Z,101483.34
2022-07-29T04:25:47.438Z,101460.00
2022-07-29T04:28:32.941Z,101482.72
2022-07-29T04:31:22.426Z,101495.03
2022-07-29T04:34:11.224Z,101476.44
2022-07-29T04:36:56.874Z,101492.66
2022-07-29T04:39:41.942Z,101485.72
2022-07-29T04:42:27.734Z,101485.00
2022-07-29T04:45:15.033Z,101479.81
2022-07-29T04:48:01.436Z,101493.06
2022-07-29T04:50:46.543Z,101485.06
2022-07-29T04:53:31.981Z,101484.22
2022-07-29T04:56:17.160Z,101491.91
2022-07-29T04:59:02.518Z,101497.94
2022-07-29T05:01:47.814Z,101498.31
2022-07-29T05:04:32.887Z,101474.44
2022-07-29T05:07:17.844Z,101496.41
2022-07-29T05:10:04.304Z,101497.94
2022-07-29T05:12:49.532Z,101492.38
2022-07-29T05:15:35.762Z,101495.66
2022-07-29T05:18:20.854Z,101501.84
2022-07-29T05:21:11.284Z,101503.81
2022-07-29T05:23:56.533Z,101506.03
2022-07-29T05:26:41.910Z,101511.72
2022-07-29T05:29:43.907Z,101503.06
2022-07-29T05:32:30.755Z,101488.41
2022-07-29T05:35:16.584Z,101501.19
2022-07-29T05:38:01.954Z,101495.22
2022-07-29T05:40:47.092Z,101513.03
2022-07-29T05:43:32.742Z,101502.81
2022-07-29T05:46:17.980Z,101509.41
2022-07-29T05:49:03.863Z,101509.41
2022-07-29T05:51:50.273Z,101518.78
2022-07-29T05:54:35.902Z,101515.72
2022-07-29T05:57:24.331Z,101503.56
2022-07-29T06:00:10.376Z,101506.91
2022-07-29T06:02:55.370Z,101517.88
2022-07-29T06:05:40.901Z,101518.44
2022-07-29T06:08:26.089Z,101519.13
2022-07-29T06:11:11.405Z,101526.75
2022-07-29T06:13:56.808Z,101523.94
2022-07-29T06:16:42.394Z,101519.88
2022-07-29T06:19:27.771Z,101528.56
2022-07-29T06:22:12.881Z,101489.66
2022-07-29T06:24:58.148Z,101509.38
2022-07-29T06:27:43.390Z,101499.41
2022-07-29T06:30:29.669Z,101521.50
2022-07-29T06:33:19.801Z,101522.00
2022-07-29T06:36:06.664Z,101519.63
2022-07-29T06:38:52.320Z,101524.56
2022-07-29T06:41:39.190Z,101521.66
2022-07-29T06:44:24.379Z,101523.78
2022-07-29T06:47:09.565Z,101530.03
2022-07-29T06:49:54.863Z,101516.66
2022-07-29T06:52:40.052Z,101525.41
2022-07-29T06:55:25.589Z,101489.00
2022-07-29T06:58:11.760Z,101532.53
2022-07-29T07:00:57.816Z,101539.19
2022-07-29T07:03:43.154Z,101538.00
2022-07-29T07:06:28.523Z,101551.69
2022-07-29T07:09:13.782Z,101541.28
2022-07-29T07:11:59.041Z,101542.91
2022-07-29T07:14:44.337Z,101556.09
2022-07-29T07:17:29.638Z,101559.31
2022-07-29T07:20:14.846Z,101542.94
2022-07-29T07:23:00.071Z,101545.22
2022-07-29T07:25:45.364Z,101547.88
2022-07-29T07:28:30.571Z,101559.44
2022-07-29T07:31:15.887Z,101556.69
2022-07-29T07:34:01.283Z,101559.41
2022-07-29T07:36:46.636Z,101553.25
2022-07-29T07:39:31.978Z,101562.03
2022-07-29T07:42:17.391Z,101561.75
2022-07-29T07:45:13.719Z,101566.50
2022-07-29T07:47:59.426Z,101553.38
2022-07-29T07:50:44.765Z,101570.56
2022-07-29T07:53:30.714Z,101560.06
2022-07-29T07:56:16.491Z,101555.88
2022-07-29T07:59:01.447Z,101549.97
2022-07-29T08:01:50.481Z,101542.69
2022-07-29T08:04:41.922Z,101552.75
2022-07-29T08:07:27.127Z,101546.59
2022-07-29T08:10:13.088Z,101550.47
2022-07-29T08:12:58.469Z,101531.97
2022-07-29T08:15:45.820Z,101544.38
2022-07-29T08:18:32.093Z,101536.41
2022-07-29T08:21:18.563Z,101560.13
2022-07-29T08:24:22.770Z,101543.84
2022-07-29T08:27:26.937Z,101531.78
2022-07-29T08:30:13.105Z,101559.66
2022-07-29T08:32:58.393Z,101558.66
2022-07-29T08:35:43.450Z,101562.41
2022-07-29T08:38:28.789Z,101551.66
2022-07-29T08:41:14.070Z,101560.94
2022-07-29T08:43:59.383Z,101569.81
2022-07-29T08:46:44.904Z,101560.22
2022-07-29T08:49:30.036Z,101562.13
2022-07-29T08:52:16.997Z,101552.84
2022-07-29T08:55:02.951Z,101559.69
2022-07-29T08:57:51.961Z,101563.38
2022-07-29T09:00:46.559Z,101570.94
2022-07-29T09:03:36.893Z,101557.78
2022-07-29T09:06:23.021Z,101577.88
2022-07-29T09:09:09.148Z,101585.59
2022-07-29T09:11:54.537Z,101574.47
2022-07-29T09:14:40.340Z,101582.66
2022-07-29T09:17:56.281Z,101578.72
2022-07-29T09:21:11.773Z,101569.56
2022-07-29T09:24:10.191Z,101579.63
2022-07-29T09:26:55.823Z,101579.53
2022-07-29T09:29:41.224Z,101565.88
2022-07-29T09:32:27.424Z,101556.22
2022-07-29T09:35:21.540Z,101561.44
2022-07-29T09:38:15.998Z,101564.88
2022-07-29T09:41:06.136Z,101552.03
2022-07-29T09:43:59.635Z,101555.56
2022-07-29T09:47:07.072Z,101566.06
2022-07-29T09:49:54.333Z,101563.75
2022-07-29T09:52:50.226Z,101551.41
2022-07-29T09:55:50.697Z,101561.13
2022-07-29T09:58:37.123Z,101560.94
2022-07-29T10:01:29.691Z,101568.13
2022-07-29T10:04:15.377Z,101559.44
2022-07-29T10:07:05.371Z,101561.84
2022-07-29T10:09:55.673Z,101550.28
2022-07-29T10:13:07.243Z,101549.72
2022-07-29T10:15:55.253Z,101537.03
2022-07-29T10:18:41.155Z,101551.03
2022-07-29T10:21:36.179Z,101555.84
2022-07-29T10:24:22.349Z,101557.69
2022-07-29T10:27:09.526Z,101549.63
2022-07-29T10:29:55.356Z,101543.91
2022-07-29T10:33:07.705Z,101550.50
2022-07-29T10:35:55.905Z,101549.13
2022-07-29T10:38:53.333Z,101561.75
2022-07-29T10:42:08.171Z,101552.72
2022-07-29T10:44:55.170Z,101550.72
2022-07-29T10:47:40.506Z,101534.28
2022-07-29T10:50:25.684Z,101558.47
2022-07-29T10:53:11.995Z,101554.91
2022-07-29T10:55:59.548Z,101558.69
2022-07-29T10:58:49.959Z,101555.75
2022-07-29T11:01:39.045Z,101555.56
2022-07-29T11:04:47.180Z,101561.03
2022-07-29T11:07:45.932Z,101544.22
2022-07-29T11:10:31.979Z,101556.78
2022-07-29T11:13:47.247Z,101564.75
2022-07-29T11:17:03.590Z,101559.94
2022-07-29T11:19:52.623Z,101552.00
2022-07-29T11:22:43.149Z,101563.31
2022-07-29T11:25:42.510Z,101554.19
2022-07-29T11:28:40.633Z,101579.03
2022-07-29T11:31:42.303Z,101562.03
2022-07-29T11:34:36.523Z,101558.03
2022-07-29T11:40:28.111Z,101542.47
2022-07-29T11:43:52.437Z,101558.09
2022-07-29T11:46:51.919Z,101559.56
2022-07-29T11:49:48.161Z,101560.28
2022-07-29T11:52:38.391Z,101551.63
2022-07-29T11:55:37.987Z,101549.81
2022-07-29T11:58:38.280Z,101554.41
2022-07-29T12:01:25.518Z,101561.53
2022-07-29T12:04:13.777Z,101555.97
2022-07-29T12:07:00.495Z,101557.13
2022-07-29T12:09:53.577Z,101561.09
2022-07-29T12:12:42.474Z,101561.38
2022-07-29T12:15:39.486Z,101565.13
2022-07-29T12:18:32.135Z,101552.63
2022-07-29T12:21:17.346Z,101558.25
2022-07-29T12:24:08.973Z,101554.97
2022-07-29T12:26:59.860Z,101543.38
2022-07-29T12:29:55.766Z,101548.03
2022-07-29T12:32:46.849Z,101553.81
2022-07-29T12:35:32.969Z,101549.84
2022-07-29T12:38:18.769Z,101546.38
2022-07-29T12:41:04.945Z,101543.94
2022-07-29T12:43:54.979Z,101529.41
2022-07-29T12:46:40.270Z,101540.63
2022-07-29T12:49:25.383Z,101545.00
2022-07-29T12:52:34.408Z,101547.28
2022-07-29T12:55:42.505Z,101543.53
2022-07-29T12:58:31.790Z,101535.22
2022-07-29T13:01:19.036Z,101532.69
2022-07-29T13:04:05.318Z,101545.59
2022-07-29T13:07:10.321Z,101539.75
2022-07-29T13:10:20.428Z,101527.94
2022-07-29T13:13:14.292Z,101535.41
2022-07-29T13:16:09.086Z,101547.66
2022-07-29T13:19:11.011Z,101549.75
2022-07-29T13:21:56.129Z,101545.44
2022-07-29T13:24:59.394Z,101536.28
2022-07-29T13:27:46.714Z,101531.09
2022-07-29T13:30:32.080Z,101529.44
2022-07-29T13:33:17.305Z,101515.25
2022-07-29T13:36:02.476Z,101523.78
2022-07-29T13:38:47.482Z,101521.34
2022-07-29T13:41:32.736Z,101524.44
2022-07-29T13:44:18.163Z,101521.66
2022-07-29T13:47:03.595Z,101516.41
2022-07-29T13:49:49.227Z,101524.97
2022-07-29T13:52:34.995Z,101522.63
2022-07-29T13:55:20.589Z,101516.69
2022-07-29T13:58:05.698Z,101526.16
2022-07-29T14:00:51.125Z,101526.97
2022-07-29T14:03:39.180Z,101514.06
2022-07-29T14:06:25.192Z,101520.13
2022-07-29T14:09:10.870Z,101525.44
2022-07-29T14:11:56.471Z,101524.72
2022-07-29T14:14:42.452Z,101520.88
2022-07-29T14:17:28.207Z,101521.94
2022-07-29T14:20:13.490Z,101528.97
2022-07-29T14:22:58.846Z,101520.53
2022-07-29T14:25:44.560Z,101524.66
2022-07-29T14:28:30.451Z,101524.72
2022-07-29T14:31:16.098Z,101520.78
2022-07-29T14:34:03.015Z,101508.28
2022-07-29T14:36:48.553Z,101511.78
2022-07-29T14:39:36.123Z,101522.66
2022-07-29T14:42:24.234Z,101520.31
2022-07-29T14:45:10.831Z,101510.22
2022-07-29T14:47:56.373Z,101514.81
2022-07-29T14:50:42.724Z,101502.75
2022-07-29T14:53:28.072Z,101514.28
2022-07-29T14:56:35.366Z,101494.31
2022-07-29T14:59:18.547Z,101505.81
2022-07-29T15:02:04.268Z,101508.81
2022-07-29T15:04:49.637Z,101512.31
2022-07-29T15:07:35.029Z,101505.91
2022-07-29T15:10:20.736Z,101506.53
2022-07-29T15:13:06.209Z,101514.28
2022-07-29T15:15:51.692Z,101512.47
2022-07-29T15:18:39.134Z,101510.16
2022-07-29T15:21:24.695Z,101497.53
2022-07-29T15:24:10.059Z,101508.16
2022-07-29T15:26:55.310Z,101509.88
2022-07-29T15:29:42.498Z,101505.56
2022-07-29T15:32:27.447Z,101498.72
2022-07-29T15:35:12.794Z,101502.56
2022-07-29T15:37:58.609Z,101492.66
2022-07-29T15:40:44.549Z,101487.22
2022-07-29T15:43:29.815Z,101497.06
2022-07-29T15:46:34.591Z,101483.19
2022-07-29T15:49:19.743Z,101487.06
2022-07-29T15:52:10.027Z,101478.38
2022-07-29T15:54:58.169Z,101476.94
2022-07-29T15:57:43.485Z,101478.16
2022-07-29T16:00:28.545Z,101489.13
2022-07-29T16:03:14.800Z,101488.28
2022-07-29T16:05:59.726Z,101483.09
2022-07-29T16:08:45.079Z,101489.28
2022-07-29T16:11:30.434Z,101500.31
2022-07-29T16:14:15.754Z,101499.03
2022-07-29T16:17:03.726Z,101506.03
2022-07-29T16:19:48.979Z,101494.47
2022-07-29T16:22:34.481Z,101506.06
2022-07-29T16:25:19.552Z,101512.03
2022-07-29T16:28:05.379Z,101520.88
2022-07-29T16:30:51.243Z,101506.00
2022-07-29T16:33:54.205Z,101516.94
2022-07-29T16:36:44.698Z,101512.59
2022-07-29T16:39:32.942Z,101511.75
2022-07-29T16:42:36.991Z,101501.69
2022-07-29T16:45:23.733Z,101511.31
2022-07-29T16:48:08.865Z,101496.66
2022-07-29T16:50:56.123Z,101489.84
2022-07-29T16:53:41.112Z,101496.09
2022-07-29T16:56:26.326Z,101480.16
2022-07-29T16:59:11.876Z,101499.56
2022-07-29T17:01:56.988Z,101499.19
2022-07-29T17:04:42.449Z,101486.88
2022-07-29T17:07:27.660Z,101501.38
2022-07-29T17:10:13.091Z,101501.91
2022-07-29T17:12:58.234Z,101503.56
2022-07-29T17:15:44.081Z,101500.31
2022-07-29T17:18:29.412Z,101492.44
2022-07-29T17:21:14.638Z,101502.75
2022-07-29T17:24:00.070Z,101507.28
2022-07-29T17:26:45.497Z,101507.75
2022-07-29T17:29:30.566Z,101491.25
2022-07-29T17:32:15.931Z,101514.03
2022-07-29T17:35:01.129Z,101508.69
2022-07-29T17:37:46.660Z,101516.16
2022-07-29T17:40:31.813Z,101517.91
2022-07-29T17:43:17.206Z,101525.53
2022-07-29T17:46:02.493Z,101530.53
2022-07-29T17:48:48.302Z,101533.22
2022-07-29T17:51:33.698Z,101534.03
2022-07-29T17:54:18.830Z,101534.78
2022-07-29T17:57:04.244Z,101542.72
2022-07-29T17:59:49.474Z,101542.97
2022-07-29T18:02:37.393Z,101542.31
2022-07-29T18:05:23.036Z,101548.88
2022-07-29T18:08:08.510Z,101537.41
2022-07-29T18:10:53.718Z,101537.09
2022-07-29T18:13:39.198Z,101530.31
2022-07-29T18:16:24.807Z,101537.28
2022-07-29T18:19:10.061Z,101517.91
2022-07-29T18:21:57.323Z,101539.31
2022-07-29T18:24:44.710Z,101535.47
2022-07-29T18:27:29.964Z,101521.56
2022-07-29T18:30:15.384Z,101524.91
2022-07-29T18:33:20.234Z,101530.78
2022-07-29T18:36:11.678Z,101534.22
2022-07-29T18:38:56.752Z,101532.31
2022-07-29T18:41:50.311Z,101535.34
2022-07-29T18:44:43.528Z,101530.88
2022-07-29T18:47:32.122Z,101537.53
2022-07-29T18:50:19.257Z,101521.38
2022-07-29T18:53:04.605Z,101527.59
2022-07-29T18:55:49.894Z,101539.28
2022-07-29T18:58:36.994Z,101505.75
2022-07-29T19:01:22.197Z,101520.97
2022-07-29T19:04:07.378Z,101529.84
2022-07-29T19:06:52.578Z,101534.38
2022-07-29T19:09:37.954Z,101537.56
2022-07-29T19:12:34.913Z,101549.63
2022-07-29T19:15:20.706Z,101561.16
2022-07-29T19:18:05.830Z,101566.16
2022-07-29T19:20:51.088Z,101561.16
2022-07-29T19:24:06.043Z,101562.44
2022-07-29T19:26:46.747Z,101557.44
2022-07-29T19:29:32.916Z,101572.81
2022-07-29T19:32:25.008Z,101582.16
2022-07-29T19:35:28.366Z,101570.09
2022-07-29T19:38:14.224Z,101583.94
2022-07-29T19:40:59.600Z,101590.25
2022-07-29T19:43:52.030Z,101586.56
2022-07-29T19:46:38.083Z,101592.56
2022-07-29T19:49:23.564Z,101595.63
2022-07-29T19:52:08.796Z,101586.91
2022-07-29T19:54:53.939Z,101598.56
2022-07-29T19:57:41.013Z,101597.97
2022-07-29T20:00:27.363Z,101621.84
2022-07-29T20:03:13.378Z,101624.16
2022-07-29T20:05:59.984Z,101631.78
2022-07-29T20:08:45.356Z,101615.34
2022-07-29T20:11:30.453Z,101637.00
2022-07-29T20:14:15.831Z,101633.97
2022-07-29T20:17:01.321Z,101632.22
2022-07-29T20:19:46.767Z,101633.69
2022-07-29T20:22:32.170Z,101634.81
2022-07-29T20:25:17.522Z,101615.03
2022-07-29T20:28:02.827Z,101630.34
2022-07-29T20:30:48.326Z,101612.53
2022-07-29T20:33:34.767Z,101643.28
2022-07-29T20:36:20.034Z,101638.19
2022-07-29T20:39:05.471Z,101646.63
2022-07-29T20:41:50.726Z,101655.06
2022-07-29T20:44:36.773Z,101630.69
2022-07-29T20:47:22.373Z,101656.97
2022-07-29T20:50:09.848Z,101661.44
2022-07-29T20:52:54.918Z,101652.53
2022-07-29T20:55:40.325Z,101654.22
2022-07-29T20:58:26.808Z,101664.88
2022-07-29T21:01:12.073Z,101663.78
2022-07-29T21:03:57.232Z,101649.25
2022-07-29T21:06:42.552Z,101648.72
2022-07-29T21:09:28.391Z,101646.09
2022-07-29T21:12:14.173Z,101660.16
2022-07-29T21:14:59.502Z,101651.72
2022-07-29T21:17:47.670Z,101668.66
2022-07-29T21:20:32.608Z,101660.72
2022-07-29T21:23:17.845Z,101679.09
2022-07-29T21:26:03.486Z,101660.75
2022-07-29T21:28:50.591Z,101677.25
2022-07-29T21:31:36.147Z,101671.38
2022-07-29T21:34:21.265Z,101643.28
2022-07-29T21:37:06.559Z,101674.75
2022-07-29T21:39:53.440Z,101665.66
2022-07-29T21:42:38.727Z,101659.34
2022-07-29T21:45:24.070Z,101671.66
2022-07-29T21:48:09.771Z,101672.50
2022-07-29T21:50:55.196Z,101665.09
2022-07-29T21:53:40.369Z,101675.28
2022-07-29T21:56:27.890Z,101676.84
2022-07-29T21:59:13.307Z,101656.44
2022-07-29T22:02:00.899Z,101682.88
2022-07-29T22:04:46.341Z,101669.44
2022-07-29T22:07:54.598Z,101687.91
2022-07-29T22:10:37.526Z,101694.22
2022-07-29T22:13:22.742Z,101660.63
2022-07-29T22:16:10.138Z,101666.34
2022-07-29T22:18:55.324Z,101678.81
2022-07-29T22:21:41.330Z,101679.06
2022-07-29T22:24:26.642Z,101673.06
2022-07-29T22:27:12.566Z,101669.44
2022-07-29T22:29:57.826Z,101675.59
2022-07-29T22:32:43.414Z,101666.34
2022-07-29T22:35:28.455Z,101662.16
2022-07-29T22:38:14.100Z,101646.47
2022-07-29T22:41:01.371Z,101669.97
2022-07-29T22:43:46.843Z,101666.75
2022-07-29T22:46:33.868Z,101667.72
2022-07-29T22:49:19.011Z,101650.19
2022-07-29T22:52:04.471Z,101657.09
2022-07-29T22:54:50.165Z,101658.22
2022-07-29T22:57:35.574Z,101660.31
2022-07-29T23:00:20.837Z,101664.91
2022-07-29T23:03:06.079Z,101659.13
2022-07-29T23:05:51.931Z,101676.19
2022-07-29T23:08:36.897Z,101677.28
2022-07-29T23:11:22.235Z,101679.34
2022-07-29T23:14:07.513Z,101672.53
2022-07-29T23:16:55.010Z,101688.00
2022-07-29T23:19:40.165Z,101691.03
2022-07-29T23:22:25.433Z,101697.34
2022-07-29T23:25:10.795Z,101689.75
2022-07-29T23:27:56.059Z,101694.78
2022-07-29T23:30:42.074Z,101697.66
2022-07-29T23:33:27.230Z,101690.50
2022-07-29T23:36:12.493Z,101693.88
2022-07-29T23:38:57.810Z,101689.56
2022-07-29T23:41:43.017Z,101685.09
2022-07-29T23:44:28.544Z,101690.53
2022-07-29T23:47:13.812Z,101677.41
2022-07-29T23:49:59.626Z,101687.44
2022-07-29T23:52:45.183Z,101682.66
2022-07-29T23:55:37.132Z,101679.34
2022-07-29T23:58:24.254Z,101695.00
